Wellfleet, Nebraska
Current Conditions -  °F | °C
As of 2:53 PM on Monday 22 Dec 2014 (Local Time) from KLBF Reporting Station
Overcast Overcast  
Wind Chill: 36°   Ceiling: 12000
Heat Index: 45°   Visibility: 10mi
Dew Point: 23°   Wind: 23mph
Humidity: 42%   Direction: 310°NW
Pressure: 29.53"   Gusts: 35mph
Location:  40.75°N, 100.73°W
Report Text: KLBF 222053Z AUTO 31020G30KT 10SM OVC120 07/M05 A2953 RMK AO2 PK WND 30034/2036 SLP012 T00721050 56008
Loading
Personal Weather Stations






























Interactive Weather Map New forecast layout! Learn more

10-Day Weather Forecast

Advertisements
Track Severe Weather on mobile